首页
METAR-TAF:

METAR-TAF

机场 :

哥伦布, 喬治亞, 美国

纬度: 32-30-58N, 经度: 084-56-32W, 海拔: 121米

当前天气观测

该预报发布于30分钟前的10:20 UTC
风速5节,风向西转西南
温度 16°C
湿度 94%
气压 1009 hPa
能見度: 16.1公里
散云层高于600英尺
阴天层高于1800英尺

METAR: KCSG 261020Z AUTO 25005KT 10SM SCT006 OVC018 16/15 A2980 RMK AO2 T01560150

时间: 06:50 (10:50 UTC)

预报

该预报发布于2小时和29分钟前的08:21 UTC
预报有效从26日的 08点(UTC)到 27日的 06点(UTC)
风速9节,风向西南
能見度: 10公里
多云层高于1200英尺
短暂存在
从 26日的 08点(UTC)到 26日的 12点(UTC)
多云层高于500英尺
从 26日的 1300点(UTC)
风速8节,风向西转西北
能見度: 10公里
多云层高于900英尺
从 26日的 1400点(UTC)
风速13节,风向西北,有时为20节阵风
能見度: 10公里
散云层高于2500英尺
从 26日的 1900点(UTC)
风速20节,风向西北,有时为30节阵风
能見度: 10公里
散云层高于20000英尺
从 27日的 0000点(UTC)
风速11节,风向西北
能見度: 10公里
少量云层高于25000英尺

TAF: KCSG 260821Z 2608/2706 22009KT P6SM BKN012 TEMPO 2608/2612 BKN005 FM261300 29008KT P6SM BKN009 FM261400 31013G20KT P6SM SCT025 FM261900 32020G30KT P6SM SCT200 FM270000 32011KT P6SM FEW250

超过4000个机场的气象观测和天气预报(METAR&TAF报告)。

可查询的气象台以黄色和红色小点在地图上表示。

将鼠标移到小点上方,可查看气象台名称。

然后点击查看天气观测和预报。

如需切换地图:点击带黑十字的绿色按钮放大地图;点击带横线的绿色按钮缩小地图;或者点击绿色箭头查看邻近地区的地图。


METAR-TAF: